createdAt,value
2023-01-22T00:03:54.892Z,103243.47
2023-01-22T00:09:16.667Z,103242.97
2023-01-22T00:14:38.374Z,103240.75
2023-01-22T00:20:00.172Z,103239.38
2023-01-22T00:25:21.907Z,103235.44
2023-01-22T00:30:43.706Z,103235.81
2023-01-22T00:36:11.265Z,103226.88
2023-01-22T00:41:32.984Z,103226.34
2023-01-22T00:46:54.693Z,103221.22
2023-01-22T00:52:16.443Z,103225.19
2023-01-22T00:57:38.194Z,103237.72
2023-01-22T01:03:18.554Z,103246.19
2023-01-22T01:08:42.614Z,103239.13
2023-01-22T01:14:04.905Z,103227.56
2023-01-22T01:19:26.602Z,103223.44
2023-01-22T01:24:48.614Z,103228.47
2023-01-22T01:30:10.826Z,103207.72
2023-01-22T01:35:32.671Z,103205.16
2023-01-22T01:40:54.369Z,103192.56
2023-01-22T01:46:23.126Z,103184.41
2023-01-22T01:51:45.824Z,103188.44
2023-01-22T01:57:12.784Z,103174.94
2023-01-22T02:02:34.492Z,103186.41
2023-01-22T02:07:56.384Z,103175.69
2023-01-22T02:13:26.310Z,103170.16
2023-01-22T02:18:48.188Z,103159.81
2023-01-22T02:24:15.051Z,103160.56
2023-01-22T02:29:37.131Z,103164.72
2023-01-22T02:34:59.148Z,103159.53
2023-01-22T02:40:21.129Z,103162.31
2023-01-22T02:45:43.131Z,103163.34
2023-01-22T02:51:05.460Z,103151.63
2023-01-22T02:56:27.291Z,103143.69
2023-01-22T03:01:49.164Z,103147.50
2023-01-22T03:07:10.889Z,103132.78
2023-01-22T03:12:51.020Z,103134.03
2023-01-22T03:18:32.364Z,103133.34
2023-01-22T03:23:55.347Z,103117.78
2023-01-22T03:29:17.144Z,103086.69
2023-01-22T03:34:38.983Z,103100.53
2023-01-22T03:40:00.748Z,103097.06
2023-01-22T03:45:22.461Z,103086.00
2023-01-22T03:50:44.146Z,103097.25
2023-01-22T03:56:09.209Z,103113.00
2023-01-22T04:01:31.119Z,103115.75
2023-01-22T04:06:53.097Z,103118.53
2023-01-22T04:12:14.803Z,103114.91
2023-01-22T04:17:36.502Z,103108.50
2023-01-22T04:22:58.285Z,103109.75
2023-01-22T04:28:20.872Z,103096.06
2023-01-22T04:33:42.570Z,103108.03
2023-01-22T04:39:04.442Z,103109.25
2023-01-22T04:44:26.190Z,103098.34
2023-01-22T04:49:47.911Z,103107.88
2023-01-22T04:55:10.145Z,103098.06
2023-01-22T05:00:31.954Z,103094.63
2023-01-22T05:05:53.700Z,103102.03
2023-01-22T05:11:15.468Z,103104.13
2023-01-22T05:16:37.196Z,103108.13
2023-01-22T05:21:58.895Z,103105.53
2023-01-22T05:27:20.868Z,103105.91
2023-01-22T05:32:42.592Z,103108.84
2023-01-22T05:38:04.303Z,103110.06
2023-01-22T05:43:25.976Z,103114.94
2023-01-22T05:48:47.828Z,103108.72
2023-01-22T05:54:10.266Z,103114.59
2023-01-22T05:59:32.099Z,103118.41
2023-01-22T06:04:54.079Z,103115.31
2023-01-22T06:10:16.834Z,103115.50
2023-01-22T06:15:39.384Z,103120.34
2023-01-22T06:21:03.352Z,103133.50
2023-01-22T06:26:25.062Z,103129.88
2023-01-22T06:31:46.896Z,103130.06
2023-01-22T06:37:09.251Z,103122.63
2023-01-22T06:42:30.983Z,103132.78
2023-01-22T06:47:52.702Z,103131.75
2023-01-22T06:53:14.631Z,103125.22
2023-01-22T06:58:36.368Z,103140.75
2023-01-22T07:03:58.098Z,103137.84
2023-01-22T07:09:19.992Z,103154.53
2023-01-22T07:14:41.744Z,103147.69
2023-01-22T07:20:04.997Z,103150.63
2023-01-22T07:25:27.779Z,103152.34
2023-01-22T07:30:49.949Z,103151.69
2023-01-22T07:36:11.662Z,103153.53
2023-01-22T07:41:33.397Z,103161.47
2023-01-22T07:46:55.175Z,103155.59
2023-01-22T07:52:16.984Z,103154.06
2023-01-22T07:57:38.753Z,103154.28
2023-01-22T08:03:00.729Z,103150.41
2023-01-22T08:08:22.379Z,103160.59
2023-01-22T08:13:44.121Z,103171.84
2023-01-22T08:19:05.816Z,103176.22
2023-01-22T08:24:27.654Z,103180.69
2023-01-22T08:29:52.415Z,103183.25
2023-01-22T08:35:14.309Z,103177.59
2023-01-22T08:40:37.910Z,103185.16
2023-01-22T08:45:59.942Z,103192.91
2023-01-22T08:51:23.632Z,103190.09
2023-01-22T08:56:45.426Z,103194.44
2023-01-22T09:02:12.754Z,103198.84
2023-01-22T09:07:34.578Z,103200.19
2023-01-22T09:12:59.710Z,103199.81
2023-01-22T09:18:21.435Z,103203.88
2023-01-22T09:23:43.144Z,103202.34
2023-01-22T09:29:06.089Z,103193.31
2023-01-22T09:34:27.901Z,103207.50
2023-01-22T09:39:50.675Z,103201.59
2023-01-22T09:45:15.352Z,103206.34
2023-01-22T09:50:38.147Z,103209.59
2023-01-22T09:56:00.677Z,103207.31
2023-01-22T10:01:23.618Z,103210.31
2023-01-22T10:06:46.394Z,103214.84
2023-01-22T10:12:13.984Z,103214.22
2023-01-22T10:17:36.963Z,103216.16
2023-01-22T10:23:09.070Z,103218.31
2023-01-22T10:28:50.557Z,103216.13
2023-01-22T10:34:21.444Z,103208.66
2023-01-22T10:39:46.249Z,103211.03
2023-01-22T10:45:19.554Z,103212.50
2023-01-22T10:50:42.428Z,103206.28
2023-01-22T10:56:08.270Z,103214.66
2023-01-22T11:01:35.785Z,103214.88
2023-01-22T11:07:07.256Z,103204.78
2023-01-22T11:12:42.976Z,103201.13
2023-01-22T11:18:07.498Z,103193.41
2023-01-22T11:23:47.869Z,103195.56
2023-01-22T11:29:31.233Z,103195.97
2023-01-22T11:35:01.308Z,103187.88
2023-01-22T11:40:31.055Z,103179.72
2023-01-22T11:46:13.854Z,103183.78
2023-01-22T11:52:16.829Z,103169.84
2023-01-22T11:57:59.759Z,103170.28
2023-01-22T12:03:39.676Z,103161.91
2023-01-22T12:09:07.278Z,103158.25
2023-01-22T12:14:51.021Z,103153.09
2023-01-22T12:20:54.479Z,103141.88
2023-01-22T12:26:31.902Z,103153.81
2023-01-22T12:32:11.204Z,103148.16
2023-01-22T12:37:45.348Z,103147.19
2023-01-22T12:43:08.003Z,103155.69
2023-01-22T12:48:47.137Z,103155.59
2023-01-22T12:54:28.493Z,103158.78
2023-01-22T12:59:55.541Z,103160.19
2023-01-22T13:05:20.421Z,103156.28
2023-01-22T13:10:56.642Z,103160.56
2023-01-22T13:16:36.570Z,103159.34
2023-01-22T13:22:00.884Z,103157.94
2023-01-22T13:27:32.489Z,103147.56
2023-01-22T13:33:15.416Z,103157.47
2023-01-22T13:38:37.954Z,103160.91
2023-01-22T13:43:59.911Z,103159.63
2023-01-22T13:49:25.702Z,103167.41
2023-01-22T13:55:16.073Z,103165.69
2023-01-22T14:00:37.842Z,103171.28
2023-01-22T14:06:14.845Z,103176.84
2023-01-22T14:11:40.796Z,103176.19
2023-01-22T14:17:02.508Z,103168.63
2023-01-22T14:22:24.739Z,103183.16
2023-01-22T14:27:50.208Z,103178.44
2023-01-22T14:33:23.241Z,103184.41
2023-01-22T14:38:46.087Z,103176.50
2023-01-22T14:44:08.486Z,103192.94
2023-01-22T14:49:31.006Z,103206.34
2023-01-22T14:54:52.791Z,103203.09
2023-01-22T15:00:17.236Z,103202.38
2023-01-22T15:05:39.096Z,103214.03
2023-01-22T15:11:01.582Z,103208.16
2023-01-22T15:16:23.309Z,103213.84
2023-01-22T15:21:45.296Z,103214.16
2023-01-22T15:27:07.826Z,103212.78
2023-01-22T15:32:30.023Z,103216.56
2023-01-22T15:37:51.760Z,103209.50
2023-01-22T15:43:13.542Z,103210.94
2023-01-22T15:48:37.273Z,103212.78
2023-01-22T15:54:02.453Z,103204.72
2023-01-22T15:59:24.288Z,103204.31
2023-01-22T16:04:46.033Z,103200.78
2023-01-22T16:10:08.067Z,103205.38
2023-01-22T16:15:29.749Z,103202.63
2023-01-22T16:20:51.570Z,103203.91
2023-01-22T16:26:19.107Z,103208.44
2023-01-22T16:31:41.232Z,103216.38
2023-01-22T16:37:05.913Z,103215.72
2023-01-22T16:42:27.653Z,103211.44
2023-01-22T16:47:49.625Z,103211.66
2023-01-22T16:53:11.342Z,103215.50
2023-01-22T16:58:33.087Z,103217.41
2023-01-22T17:03:54.919Z,103231.13
2023-01-22T17:09:24.656Z,103230.22
2023-01-22T17:14:48.419Z,103229.34
2023-01-22T17:20:10.949Z,103243.00
2023-01-22T17:25:32.679Z,103246.88
2023-01-22T17:30:55.479Z,103245.19
2023-01-22T17:36:22.702Z,103243.47
2023-01-22T17:41:45.178Z,103256.91
2023-01-22T17:47:06.919Z,103253.47
2023-01-22T17:52:28.582Z,103252.34
2023-01-22T17:57:54.762Z,103265.13
2023-01-22T18:03:16.605Z,103265.25
2023-01-22T18:08:40.049Z,103259.56
2023-01-22T18:14:05.735Z,103260.56
2023-01-22T18:19:27.797Z,103256.81
2023-01-22T18:24:49.876Z,103265.50
2023-01-22T18:30:12.183Z,103267.56
2023-01-22T18:35:34.951Z,103276.47
2023-01-22T18:40:57.047Z,103270.38
2023-01-22T18:46:19.443Z,103275.34
2023-01-22T18:51:42.266Z,103280.91
2023-01-22T18:57:04.065Z,103282.56
2023-01-22T19:02:25.819Z,103277.63
2023-01-22T19:07:47.547Z,103284.53
2023-01-22T19:13:09.593Z,103289.78
2023-01-22T19:18:31.959Z,103284.78
2023-01-22T19:23:59.224Z,103285.94
2023-01-22T19:29:23.887Z,103279.97
2023-01-22T19:34:45.750Z,103287.72
2023-01-22T19:40:09.215Z,103292.66
2023-01-22T19:45:31.004Z,103287.31
2023-01-22T19:51:02.174Z,103291.78
2023-01-22T19:56:26.419Z,103298.81
2023-01-22T20:01:49.430Z,103292.34
2023-01-22T20:07:11.471Z,103293.97
2023-01-22T20:12:33.280Z,103308.06
2023-01-22T20:17:54.973Z,103303.25
2023-01-22T20:23:16.712Z,103300.63
2023-01-22T20:28:39.745Z,103303.09
2023-01-22T20:34:03.270Z,103317.53
2023-01-22T20:39:25.263Z,103320.88
2023-01-22T20:44:47.101Z,103319.31
2023-01-22T20:50:09.431Z,103324.81
2023-01-22T20:55:31.157Z,103335.72
2023-01-22T21:00:52.902Z,103325.47
2023-01-22T21:06:16.689Z,103324.88
2023-01-22T21:11:40.398Z,103319.56
2023-01-22T21:17:02.213Z,103330.94
2023-01-22T21:22:24.023Z,103333.31
2023-01-22T21:27:45.825Z,103341.44
2023-01-22T21:33:07.604Z,103335.44
2023-01-22T21:38:29.467Z,103326.44
2023-01-22T21:44:09.839Z,103332.59
2023-01-22T21:49:32.983Z,103329.75
2023-01-22T21:54:54.729Z,103336.72
2023-01-22T22:00:18.980Z,103345.41
2023-01-22T22:05:42.323Z,103343.16
2023-01-22T22:11:04.827Z,103345.41
2023-01-22T22:16:28.053Z,103344.81
2023-01-22T22:21:51.242Z,103344.25
2023-01-22T22:27:13.374Z,103352.72
2023-01-22T22:32:35.036Z,103350.25
2023-01-22T22:37:57.091Z,103354.88
2023-01-22T22:43:18.928Z,103347.72
2023-01-22T22:48:41.219Z,103363.19
2023-01-22T22:54:06.449Z,103365.69
2023-01-22T22:59:28.152Z,103365.59
2023-01-22T23:04:50.272Z,103352.31
2023-01-22T23:10:28.916Z,103364.16
2023-01-22T23:15:50.750Z,103358.31
2023-01-22T23:21:17.676Z,103358.00
2023-01-22T23:26:41.093Z,103348.53
2023-01-22T23:32:03.006Z,103360.19
2023-01-22T23:37:24.717Z,103358.00
2023-01-22T23:42:50.235Z,103361.13
2023-01-22T23:48:11.847Z,103353.75
2023-01-22T23:53:40.267Z,103356.72
2023-01-22T23:59:02.053Z,103369.44
